Grove Hill, AL (36451)

6:47 PM CDT on July 12, 2014 (GMT -0500)
Belview Circle (KALJACKS2) Elev 381 ft | 31.54 °N, 87.89 °W | Change Station

Current weather conditions updated 11 seconds ago

Rain
Rain
78.0 °F
Feels Like 81 °F
N
0.0
Wind Variable Wind from NE
Gusts 0.0 mph

Tomorrow is forecast to be Cooler than today.

Today
High -- | Low -- °F
--% Chance of Precip.
Yesterday
High -- | Low -- °F
Precip. -- in
5:54 AM 7:58 PM
Full, 100% visible
Pressure 30.06 in
Visibility 10.0 miles
Clouds Clear
Heat Index 81 °F
Dew Point 78 °F
Humidity 100%
Rainfall 0.02 in
Snow Depth Not available.
UV 2 out of 12
Pollen 3.50 out of 12
Air Quality Not available.
Flu Activity Sporadic
METAR KGZH 122253Z AUTO 04005KT 10SM CLR 34/22 A3007 RMK AO2 LTG DSNT E SLP177 T03390222

More Conditions Fewer Conditions

Pressure 30.06 in
Visibility 10.0 miles
Clouds Clear
Heat Index 81 °F
Dew Point 78 °F
Humidity 100%
Rainfall 0.02 in
Snow Depth Not available.
UV 2 out of 12
Pollen 3.50 out of 12
Air Quality Not available.
Flu Activity Sporadic
METAR KGZH 122253Z AUTO 04005KT 10SM CLR 34/22 A3007 RMK AO2 LTG DSNT E SLP177 T03390222

More Conditions Fewer Conditions

10-Day Weather Forecast

Almanac

Astronomy

Jul. 12, 2014 Rise Set
Actual Time 5:54 AM CDT 7:58 PM CDT
Civil Twilight 5:27 AM CDT 8:26 PM CDT
Nautical Twilight 4:53 AM CDT 8:59 PM CDT
Astronomical Twilight 4:17 AM CDT 9:35 PM CDT
Moon 8:07 PM CDT 6:08 AM CDT
Length of Visible Light 14h 59m
Length of Day
14h 03m
Tomorrow will be 0m 53s shorter.
Full, 100% of the Moon is Illuminated
Today
Full
Jul 18
Last Quarter
Jul 26
New
Aug 3
First Quarter
Aug 10
Full

Today's Extremes

State Highs State Lows

Community

WunderPhotos

Upload Photos

1,733,003 photos uploaded!

WunderBlogs® & News

Nearby

Snow Depth

Station Depth Elevation
No new snow has been reported.

Earthquake Activity

City Distance Mag. Time & Date
No recent earthquake activity has been reported nearby.
Minimum magnitude displayed is 2.5.

Coastal Water Temperatures

Place Temperature
No Stations Reporting

Nearby Weather Stations

Station Location Temp. Heat Index Dew Point Humidity Wind Precip. Elev Updated Type
Belview Circle, Jackson, AL 78.0 °F 81 °F 78 °F 100% NE  at  0.0 mph 0.03 in / hr 381 ft 6:47 PM CDT Rapid Fire
Jackson, AL, Jackson, AL 89.4 °F 102 °F 77 °F 67% SE  at  0.0 mph 0.00 in / hr 53 ft 6:47 PM CDT Rapid Fire
Perdue Hill, AL 88.5 °F 99 °F 75 °F 65% ESE  at  0.0 mph 0.00 in / hr 70 ft 6:45 PM CDT Normal

Show More Stations Show Fewer Stations